Página principal
METAR-TAF:

METAR-TAF

Aeroportos :

El Hierro, Espanha

latitude: 27-49N, longitude: 017-53W, altura: 32 m

Observação actual do tempo

O boletim foi feito há 18 minutos, às 16:30 UTC
Vento 12 kt de nor-nordeste, variando entre nor-noroeste e nordeste
Temperatura 24°C
Humidade 61%
Pressão 1019 hPa
Visibilidade 10 km ou mais
Poucas nuvensa uma altura de 3500 ft

METAR: GCHI 181630Z 02012KT 340V050 9999 FEW035 24/16 Q1019

Hora: 17:48 (16:48 UTC)

Previsão

O boletim foi feito há 2 horas e 48 minutos, às 14:00 UTC
Previsão válida de 18 às 15 UTC a 19 às 15 UTC
Vento 12 kt de nor-nordeste
Visibilidade 10 km ou mais
Nuvens dispersasa uma altura de 3000 ft
Tornando-se
de 18 às 15 UTC a 18 às 17 UTC
Vento 9 kt de nor-noroeste

TAF: GCHI 181400Z 1815/1915 03012KT 9999 SCT030 TX24/1914Z TN20/1905Z BECMG 1815/1817 33009KT

Observações e previsões do tempo de mais de 4000 aeroportos (mensagens METAR e TAF).

As estações disponíveis são os pontos amarelos e vermelhos sobre o mapa.

Mova o rato sobre o mapa para ver o nome da estação.

Depois clique no ponto para visualizar as observações e previsões meteorológicas.

Para alterar o mapa : clique nos botões verdes com uma cruz preta para aumentar o zoom; no botão verde com uma pitada de zoom; ou nas setas verdes para mapas adjacentes.


METAR-TAF: